sensor_id;sensor_type;location;lat;lon;timestamp;temperature;humidity
22147;DHT22;13074;48.298;14.424;2024-01-06T00:00:25;7.20;99.90
22147;DHT22;13074;48.298;14.424;2024-01-06T00:02:54;7.30;99.90
22147;DHT22;13074;48.298;14.424;2024-01-06T00:05:21;7.30;99.90
22147;DHT22;13074;48.298;14.424;2024-01-06T00:07:49;7.40;99.90
22147;DHT22;13074;48.298;14.424;2024-01-06T00:10:17;7.40;99.90
22147;DHT22;13074;48.298;14.424;2024-01-06T00:12:44;7.40;99.90
22147;DHT22;13074;48.298;14.424;2024-01-06T00:15:12;7.40;99.90
22147;DHT22;13074;48.298;14.424;2024-01-06T00:17:39;7.40;99.90
22147;DHT22;13074;48.298;14.424;2024-01-06T00:20:09;7.40;99.90
22147;DHT22;13074;48.298;14.424;2024-01-06T00:22:37;7.50;99.90
22147;DHT22;13074;48.298;14.424;2024-01-06T00:25:05;7.40;99.90
22147;DHT22;13074;48.298;14.424;2024-01-06T00:27:32;7.40;99.90
22147;DHT22;13074;48.298;14.424;2024-01-06T00:30:00;7.30;99.90
22147;DHT22;13074;48.298;14.424;2024-01-06T00:32:27;7.30;99.90
22147;DHT22;13074;48.298;14.424;2024-01-06T00:34:55;7.30;99.90
22147;DHT22;13074;48.298;14.424;2024-01-06T00:37:24;7.30;99.90
22147;DHT22;13074;48.298;14.424;2024-01-06T00:39:51;7.30;99.90
22147;DHT22;13074;48.298;14.424;2024-01-06T00:42:19;7.30;99.90
22147;DHT22;13074;48.298;14.424;2024-01-06T00:44:47;7.40;99.90
22147;DHT22;13074;48.298;14.424;2024-01-06T00:47:14;7.30;99.90
22147;DHT22;13074;48.298;14.424;2024-01-06T00:49:41;7.30;99.90
22147;DHT22;13074;48.298;14.424;2024-01-06T00:52:09;7.40;99.90
22147;DHT22;13074;48.298;14.424;2024-01-06T00:54:38;7.40;99.90
22147;DHT22;13074;48.298;14.424;2024-01-06T00:57:05;7.40;99.90
22147;DHT22;13074;48.298;14.424;2024-01-06T00:59:33;7.50;99.90
22147;DHT22;13074;48.298;14.424;2024-01-06T01:02:00;7.50;99.90
22147;DHT22;13074;48.298;14.424;2024-01-06T01:04:27;7.50;99.90
22147;DHT22;13074;48.298;14.424;2024-01-06T01:06:55;7.50;99.90
22147;DHT22;13074;48.298;14.424;2024-01-06T01:09:22;7.50;99.90
22147;DHT22;13074;48.298;14.424;2024-01-06T01:11:51;7.50;99.90
22147;DHT22;13074;48.298;14.424;2024-01-06T01:14:19;7.40;99.90
22147;DHT22;13074;48.298;14.424;2024-01-06T01:16:46;7.40;99.90
22147;DHT22;13074;48.298;14.424;2024-01-06T01:19:14;7.30;99.90
22147;DHT22;13074;48.298;14.424;2024-01-06T01:21:41;7.30;99.90
22147;DHT22;13074;48.298;14.424;2024-01-06T01:24:09;7.20;99.90
22147;DHT22;13074;48.298;14.424;2024-01-06T01:26:36;7.30;99.90
22147;DHT22;13074;48.298;14.424;2024-01-06T01:29:05;7.30;99.90
22147;DHT22;13074;48.298;14.424;2024-01-06T01:31:33;7.30;99.90
22147;DHT22;13074;48.298;14.424;2024-01-06T01:34:00;7.30;99.90
22147;DHT22;13074;48.298;14.424;2024-01-06T01:36:28;7.30;99.90
22147;DHT22;13074;48.298;14.424;2024-01-06T01:38:55;7.20;99.90
22147;DHT22;13074;48.298;14.424;2024-01-06T01:41:22;7.00;99.90
22147;DHT22;13074;48.298;14.424;2024-01-06T01:43:50;7.10;99.90
22147;DHT22;13074;48.298;14.424;2024-01-06T01:46:26;7.10;99.90
22147;DHT22;13074;48.298;14.424;2024-01-06T01:48:54;7.10;99.90
22147;DHT22;13074;48.298;14.424;2024-01-06T01:51:24;6.90;99.90
22147;DHT22;13074;48.298;14.424;2024-01-06T01:53:54;6.80;99.90
22147;DHT22;13074;48.298;14.424;2024-01-06T01:56:22;6.70;99.90
22147;DHT22;13074;48.298;14.424;2024-01-06T01:58:49;6.60;99.90
22147;DHT22;13074;48.298;14.424;2024-01-06T02:01:17;6.60;99.90
22147;DHT22;13074;48.298;14.424;2024-01-06T02:03:46;6.60;99.90
22147;DHT22;13074;48.298;14.424;2024-01-06T02:06:13;6.60;99.90
22147;DHT22;13074;48.298;14.424;2024-01-06T02:08:41;6.60;99.90
22147;DHT22;13074;48.298;14.424;2024-01-06T02:11:08;6.60;99.90
22147;DHT22;13074;48.298;14.424;2024-01-06T02:13:36;6.60;99.90
22147;DHT22;13074;48.298;14.424;2024-01-06T02:16:04;6.60;99.90
22147;DHT22;13074;48.298;14.424;2024-01-06T02:18:33;6.50;99.90
22147;DHT22;13074;48.298;14.424;2024-01-06T02:21:03;6.50;99.90
22147;DHT22;13074;48.298;14.424;2024-01-06T02:23:34;6.50;99.90
22147;DHT22;13074;48.298;14.424;2024-01-06T02:26:03;6.50;99.90
22147;DHT22;13074;48.298;14.424;2024-01-06T02:28:30;6.50;99.90
22147;DHT22;13074;48.298;14.424;2024-01-06T02:30:58;6.50;99.90
22147;DHT22;13074;48.298;14.424;2024-01-06T02:33:25;6.50;99.90
22147;DHT22;13074;48.298;14.424;2024-01-06T02:35:53;6.50;99.90
22147;DHT22;13074;48.298;14.424;2024-01-06T02:38:20;6.50;99.90
22147;DHT22;13074;48.298;14.424;2024-01-06T02:40:50;6.50;99.90
22147;DHT22;13074;48.298;14.424;2024-01-06T02:43:17;6.50;99.90
22147;DHT22;13074;48.298;14.424;2024-01-06T02:45:45;6.50;99.90
22147;DHT22;13074;48.298;14.424;2024-01-06T02:48:13;6.50;99.90
22147;DHT22;13074;48.298;14.424;2024-01-06T02:50:41;6.60;99.90
22147;DHT22;13074;48.298;14.424;2024-01-06T02:53:08;6.60;99.90
22147;DHT22;13074;48.298;14.424;2024-01-06T02:55:38;6.60;99.90
22147;DHT22;13074;48.298;14.424;2024-01-06T02:58:08;6.60;99.90
22147;DHT22;13074;48.298;14.424;2024-01-06T03:00:35;6.60;99.90
22147;DHT22;13074;48.298;14.424;2024-01-06T03:03:03;6.70;99.90
22147;DHT22;13074;48.298;14.424;2024-01-06T03:05:31;6.70;99.90
22147;DHT22;13074;48.298;14.424;2024-01-06T03:07:59;6.70;99.90
22147;DHT22;13074;48.298;14.424;2024-01-06T03:10:26;6.70;99.90
22147;DHT22;13074;48.298;14.424;2024-01-06T03:12:54;6.60;99.90
22147;DHT22;13074;48.298;14.424;2024-01-06T03:15:23;6.60;99.90
22147;DHT22;13074;48.298;14.424;2024-01-06T03:17:50;6.50;99.90
22147;DHT22;13074;48.298;14.424;2024-01-06T03:20:17;6.50;99.90
22147;DHT22;13074;48.298;14.424;2024-01-06T03:22:45;6.40;99.90
22147;DHT22;13074;48.298;14.424;2024-01-06T03:25:13;6.30;99.90
22147;DHT22;13074;48.298;14.424;2024-01-06T03:27:40;6.20;99.90
22147;DHT22;13074;48.298;14.424;2024-01-06T03:30:08;6.00;99.90
22147;DHT22;13074;48.298;14.424;2024-01-06T03:32:37;6.00;99.90
22147;DHT22;13074;48.298;14.424;2024-01-06T03:35:06;6.10;99.90
22147;DHT22;13074;48.298;14.424;2024-01-06T03:37:33;6.10;99.90
22147;DHT22;13074;48.298;14.424;2024-01-06T03:40:01;6.20;99.90
22147;DHT22;13074;48.298;14.424;2024-01-06T03:42:28;6.30;99.90
22147;DHT22;13074;48.298;14.424;2024-01-06T03:44:56;6.30;99.90
22147;DHT22;13074;48.298;14.424;2024-01-06T03:47:23;6.30;99.90
22147;DHT22;13074;48.298;14.424;2024-01-06T03:49:52;6.40;99.90
22147;DHT22;13074;48.298;14.424;2024-01-06T03:52:19;6.40;99.90
22147;DHT22;13074;48.298;14.424;2024-01-06T03:54:47;6.50;99.90
22147;DHT22;13074;48.298;14.424;2024-01-06T03:57:15;6.50;99.90
22147;DHT22;13074;48.298;14.424;2024-01-06T03:59:42;6.50;99.90
22147;DHT22;13074;48.298;14.424;2024-01-06T04:02:10;6.50;99.90
22147;DHT22;13074;48.298;14.424;2024-01-06T04:04:37;6.50;99.90
22147;DHT22;13074;48.298;14.424;2024-01-06T04:07:06;6.50;99.90
22147;DHT22;13074;48.298;14.424;2024-01-06T04:09:34;6.60;99.90
22147;DHT22;13074;48.298;14.424;2024-01-06T04:12:01;6.60;99.90
22147;DHT22;13074;48.298;14.424;2024-01-06T04:14:29;6.60;99.90
22147;DHT22;13074;48.298;14.424;2024-01-06T04:16:56;6.70;99.90
22147;DHT22;13074;48.298;14.424;2024-01-06T04:19:24;6.70;99.90
22147;DHT22;13074;48.298;14.424;2024-01-06T04:21:52;6.70;99.90
22147;DHT22;13074;48.298;14.424;2024-01-06T04:24:21;6.80;99.90
22147;DHT22;13074;48.298;14.424;2024-01-06T04:26:50;6.70;99.90
22147;DHT22;13074;48.298;14.424;2024-01-06T04:29:17;6.70;99.90
22147;DHT22;13074;48.298;14.424;2024-01-06T04:31:45;6.80;99.90
22147;DHT22;13074;48.298;14.424;2024-01-06T04:34:12;6.80;99.90
22147;DHT22;13074;48.298;14.424;2024-01-06T04:36:40;6.80;99.90
22147;DHT22;13074;48.298;14.424;2024-01-06T04:39:07;6.70;99.90
22147;DHT22;13074;48.298;14.424;2024-01-06T04:41:36;6.70;99.90
22147;DHT22;13074;48.298;14.424;2024-01-06T04:44:04;6.70;99.90
22147;DHT22;13074;48.298;14.424;2024-01-06T04:46:31;6.70;99.90
22147;DHT22;13074;48.298;14.424;2024-01-06T04:48:59;6.70;99.90
22147;DHT22;13074;48.298;14.424;2024-01-06T04:51:26;6.70;99.90
22147;DHT22;13074;48.298;14.424;2024-01-06T04:53:54;6.60;99.90
22147;DHT22;13074;48.298;14.424;2024-01-06T04:56:21;6.60;99.90
22147;DHT22;13074;48.298;14.424;2024-01-06T04:58:50;6.50;99.90
22147;DHT22;13074;48.298;14.424;2024-01-06T05:01:18;6.50;99.90
22147;DHT22;13074;48.298;14.424;2024-01-06T05:03:45;6.50;99.90
22147;DHT22;13074;48.298;14.424;2024-01-06T05:06:13;6.40;99.90
22147;DHT22;13074;48.298;14.424;2024-01-06T05:08:40;6.30;99.90
22147;DHT22;13074;48.298;14.424;2024-01-06T05:11:10;6.30;99.90
22147;DHT22;13074;48.298;14.424;2024-01-06T05:13:38;6.40;99.90
22147;DHT22;13074;48.298;14.424;2024-01-06T05:16:07;6.50;99.90
22147;DHT22;13074;48.298;14.424;2024-01-06T05:18:35;6.50;99.90
22147;DHT22;13074;48.298;14.424;2024-01-06T05:21:03;6.50;99.90
22147;DHT22;13074;48.298;14.424;2024-01-06T05:23:30;6.60;99.90
22147;DHT22;13074;48.298;14.424;2024-01-06T05:25:58;6.60;99.90
22147;DHT22;13074;48.298;14.424;2024-01-06T05:28:25;6.60;99.90
22147;DHT22;13074;48.298;14.424;2024-01-06T05:30:53;6.60;99.90
22147;DHT22;13074;48.298;14.424;2024-01-06T05:33:22;6.60;99.90
22147;DHT22;13074;48.298;14.424;2024-01-06T05:35:49;6.70;99.90
22147;DHT22;13074;48.298;14.424;2024-01-06T05:38:17;6.70;99.90
22147;DHT22;13074;48.298;14.424;2024-01-06T05:40:44;6.70;99.90
22147;DHT22;13074;48.298;14.424;2024-01-06T05:43:12;6.70;99.90
22147;DHT22;13074;48.298;14.424;2024-01-06T05:45:39;6.70;99.90
22147;DHT22;13074;48.298;14.424;2024-01-06T05:48:09;6.70;99.90
22147;DHT22;13074;48.298;14.424;2024-01-06T05:50:38;6.70;99.90
22147;DHT22;13074;48.298;14.424;2024-01-06T05:53:06;6.70;99.90
22147;DHT22;13074;48.298;14.424;2024-01-06T05:55:34;6.70;99.90
22147;DHT22;13074;48.298;14.424;2024-01-06T05:58:01;6.70;99.90
22147;DHT22;13074;48.298;14.424;2024-01-06T06:00:29;6.70;99.90
22147;DHT22;13074;48.298;14.424;2024-01-06T06:02:57;6.70;99.90
22147;DHT22;13074;48.298;14.424;2024-01-06T06:05:24;6.70;99.90
22147;DHT22;13074;48.298;14.424;2024-01-06T06:07:53;6.70;99.90
22147;DHT22;13074;48.298;14.424;2024-01-06T06:10:21;6.60;99.90
22147;DHT22;13074;48.298;14.424;2024-01-06T06:12:48;6.60;99.90
22147;DHT22;13074;48.298;14.424;2024-01-06T06:15:16;6.70;99.90
22147;DHT22;13074;48.298;14.424;2024-01-06T06:17:43;6.60;99.90
22147;DHT22;13074;48.298;14.424;2024-01-06T06:20:11;6.70;99.90
22147;DHT22;13074;48.298;14.424;2024-01-06T06:22:38;6.70;99.90
22147;DHT22;13074;48.298;14.424;2024-01-06T06:25:08;6.70;99.90
22147;DHT22;13074;48.298;14.424;2024-01-06T06:27:36;6.70;99.90
22147;DHT22;13074;48.298;14.424;2024-01-06T06:30:06;6.70;99.90
22147;DHT22;13074;48.298;14.424;2024-01-06T06:32:34;6.70;99.90
22147;DHT22;13074;48.298;14.424;2024-01-06T06:35:01;6.70;99.90
22147;DHT22;13074;48.298;14.424;2024-01-06T06:37:29;6.70;99.90
22147;DHT22;13074;48.298;14.424;2024-01-06T06:39:56;6.70;99.90
22147;DHT22;13074;48.298;14.424;2024-01-06T06:42:25;6.70;99.90
22147;DHT22;13074;48.298;14.424;2024-01-06T06:44:53;6.70;99.90
22147;DHT22;13074;48.298;14.424;2024-01-06T06:47:20;6.70;99.90
22147;DHT22;13074;48.298;14.424;2024-01-06T06:49:48;6.70;99.90
22147;DHT22;13074;48.298;14.424;2024-01-06T06:52:15;6.70;99.90
22147;DHT22;13074;48.298;14.424;2024-01-06T06:54:43;6.70;99.90
22147;DHT22;13074;48.298;14.424;2024-01-06T06:57:10;6.70;99.90
22147;DHT22;13074;48.298;14.424;2024-01-06T06:59:39;6.70;99.90
22147;DHT22;13074;48.298;14.424;2024-01-06T07:02:06;6.70;99.90
22147;DHT22;13074;48.298;14.424;2024-01-06T07:04:34;6.70;99.90
22147;DHT22;13074;48.298;14.424;2024-01-06T07:07:02;6.60;99.90
22147;DHT22;13074;48.298;14.424;2024-01-06T07:09:30;6.60;99.90
22147;DHT22;13074;48.298;14.424;2024-01-06T07:11:57;6.70;99.90
22147;DHT22;13074;48.298;14.424;2024-01-06T07:14:25;6.70;99.90
22147;DHT22;13074;48.298;14.424;2024-01-06T07:16:54;6.70;99.90
22147;DHT22;13074;48.298;14.424;2024-01-06T07:19:21;6.60;99.90
22147;DHT22;13074;48.298;14.424;2024-01-06T07:21:49;6.70;99.90
22147;DHT22;13074;48.298;14.424;2024-01-06T07:24:16;6.60;99.90
22147;DHT22;13074;48.298;14.424;2024-01-06T07:26:44;6.70;99.90
22147;DHT22;13074;48.298;14.424;2024-01-06T07:29:11;6.60;99.90
22147;DHT22;13074;48.298;14.424;2024-01-06T07:31:39;6.60;99.90
22147;DHT22;13074;48.298;14.424;2024-01-06T07:34:08;6.60;99.90
22147;DHT22;13074;48.298;14.424;2024-01-06T07:36:35;6.60;99.90
22147;DHT22;13074;48.298;14.424;2024-01-06T07:39:04;6.60;99.90
22147;DHT22;13074;48.298;14.424;2024-01-06T07:41:31;6.60;99.90
22147;DHT22;13074;48.298;14.424;2024-01-06T07:43:59;6.60;99.90
22147;DHT22;13074;48.298;14.424;2024-01-06T07:46:28;6.60;99.90
22147;DHT22;13074;48.298;14.424;2024-01-06T07:48:57;6.70;99.90
22147;DHT22;13074;48.298;14.424;2024-01-06T07:51:26;6.60;99.90
22147;DHT22;13074;48.298;14.424;2024-01-06T07:53:53;6.50;99.90
22147;DHT22;13074;48.298;14.424;2024-01-06T07:56:22;6.50;99.90
22147;DHT22;13074;48.298;14.424;2024-01-06T07:58:49;6.50;99.90
22147;DHT22;13074;48.298;14.424;2024-01-06T08:01:18;6.50;99.90
22147;DHT22;13074;48.298;14.424;2024-01-06T08:03:45;6.50;99.90
22147;DHT22;13074;48.298;14.424;2024-01-06T08:06:13;6.60;99.90
22147;DHT22;13074;48.298;14.424;2024-01-06T08:08:43;6.60;99.90
22147;DHT22;13074;48.298;14.424;2024-01-06T08:11:11;6.70;99.90
22147;DHT22;13074;48.298;14.424;2024-01-06T08:13:39;6.70;99.90
22147;DHT22;13074;48.298;14.424;2024-01-06T08:16:07;6.70;99.90
22147;DHT22;13074;48.298;14.424;2024-01-06T08:18:34;6.80;99.90
22147;DHT22;13074;48.298;14.424;2024-01-06T08:21:02;6.90;99.90
22147;DHT22;13074;48.298;14.424;2024-01-06T08:23:29;6.90;99.90
22147;DHT22;13074;48.298;14.424;2024-01-06T08:25:58;7.00;99.90
22147;DHT22;13074;48.298;14.424;2024-01-06T08:28:26;7.10;99.90
22147;DHT22;13074;48.298;14.424;2024-01-06T08:30:54;7.10;99.90
22147;DHT22;13074;48.298;14.424;2024-01-06T08:33:21;7.20;99.90
22147;DHT22;13074;48.298;14.424;2024-01-06T08:35:49;7.30;99.90
22147;DHT22;13074;48.298;14.424;2024-01-06T08:38:16;7.30;99.90
22147;DHT22;13074;48.298;14.424;2024-01-06T08:40:44;7.30;99.90
22147;DHT22;13074;48.298;14.424;2024-01-06T08:43:15;7.40;99.90
22147;DHT22;13074;48.298;14.424;2024-01-06T08:45:42;7.40;99.90
22147;DHT22;13074;48.298;14.424;2024-01-06T08:48:10;7.50;99.90
22147;DHT22;13074;48.298;14.424;2024-01-06T08:50:39;7.50;99.90
22147;DHT22;13074;48.298;14.424;2024-01-06T08:53:06;7.60;99.90
22147;DHT22;13074;48.298;14.424;2024-01-06T08:55:34;7.70;99.90
22147;DHT22;13074;48.298;14.424;2024-01-06T08:58:01;7.70;99.90
22147;DHT22;13074;48.298;14.424;2024-01-06T09:00:30;7.70;99.90
22147;DHT22;13074;48.298;14.424;2024-01-06T09:02:58;7.80;99.90
22147;DHT22;13074;48.298;14.424;2024-01-06T09:05:25;7.80;99.90
22147;DHT22;13074;48.298;14.424;2024-01-06T09:07:53;7.80;99.90
22147;DHT22;13074;48.298;14.424;2024-01-06T09:10:20;7.80;99.90
22147;DHT22;13074;48.298;14.424;2024-01-06T09:12:47;7.80;99.90
22147;DHT22;13074;48.298;14.424;2024-01-06T09:15:15;7.80;99.90
22147;DHT22;13074;48.298;14.424;2024-01-06T09:17:44;7.80;99.90
22147;DHT22;13074;48.298;14.424;2024-01-06T09:20:11;7.70;99.90
22147;DHT22;13074;48.298;14.424;2024-01-06T09:22:39;7.70;99.90
22147;DHT22;13074;48.298;14.424;2024-01-06T09:25:07;7.80;99.90
22147;DHT22;13074;48.298;14.424;2024-01-06T09:27:34;7.70;99.90
22147;DHT22;13074;48.298;14.424;2024-01-06T09:30:02;7.70;99.90
22147;DHT22;13074;48.298;14.424;2024-01-06T09:32:29;7.70;99.90
22147;DHT22;13074;48.298;14.424;2024-01-06T09:34:59;7.70;99.90
22147;DHT22;13074;48.298;14.424;2024-01-06T09:37:26;7.80;99.90
22147;DHT22;13074;48.298;14.424;2024-01-06T09:39:53;7.80;99.90
22147;DHT22;13074;48.298;14.424;2024-01-06T09:42:21;7.90;99.90
22147;DHT22;13074;48.298;14.424;2024-01-06T09:44:48;7.90;99.90
22147;DHT22;13074;48.298;14.424;2024-01-06T09:47:18;8.00;99.90
22147;DHT22;13074;48.298;14.424;2024-01-06T09:49:49;8.00;99.90
22147;DHT22;13074;48.298;14.424;2024-01-06T09:52:22;8.10;99.90
22147;DHT22;13074;48.298;14.424;2024-01-06T09:54:52;8.10;99.90
22147;DHT22;13074;48.298;14.424;2024-01-06T09:57:20;8.10;99.90
22147;DHT22;13074;48.298;14.424;2024-01-06T09:59:47;8.20;99.90
22147;DHT22;13074;48.298;14.424;2024-01-06T10:02:16;8.20;99.90
22147;DHT22;13074;48.298;14.424;2024-01-06T10:04:44;8.20;99.90
22147;DHT22;13074;48.298;14.424;2024-01-06T10:07:12;8.30;99.90
22147;DHT22;13074;48.298;14.424;2024-01-06T10:09:41;8.30;99.90
22147;DHT22;13074;48.298;14.424;2024-01-06T10:12:09;8.20;99.90
22147;DHT22;13074;48.298;14.424;2024-01-06T10:14:37;8.10;99.90
22147;DHT22;13074;48.298;14.424;2024-01-06T10:17:06;8.20;99.90
22147;DHT22;13074;48.298;14.424;2024-01-06T10:19:34;8.20;99.90
22147;DHT22;13074;48.298;14.424;2024-01-06T10:22:02;8.10;99.90
22147;DHT22;13074;48.298;14.424;2024-01-06T10:24:30;8.20;99.90
22147;DHT22;13074;48.298;14.424;2024-01-06T10:26:59;8.20;99.90
22147;DHT22;13074;48.298;14.424;2024-01-06T10:29:26;8.20;99.90
22147;DHT22;13074;48.298;14.424;2024-01-06T10:31:54;8.20;99.90
22147;DHT22;13074;48.298;14.424;2024-01-06T10:34:22;8.30;99.90
22147;DHT22;13074;48.298;14.424;2024-01-06T10:36:50;8.30;99.90
22147;DHT22;13074;48.298;14.424;2024-01-06T10:39:18;8.30;99.90
22147;DHT22;13074;48.298;14.424;2024-01-06T10:41:47;8.20;99.90
22147;DHT22;13074;48.298;14.424;2024-01-06T10:44:17;8.30;99.90
22147;DHT22;13074;48.298;14.424;2024-01-06T10:46:46;8.60;99.90
22147;DHT22;13074;48.298;14.424;2024-01-06T10:49:14;8.10;99.90
22147;DHT22;13074;48.298;14.424;2024-01-06T10:51:42;8.10;99.90
22147;DHT22;13074;48.298;14.424;2024-01-06T10:54:12;8.10;99.90
22147;DHT22;13074;48.298;14.424;2024-01-06T10:56:43;8.10;99.90
22147;DHT22;13074;48.298;14.424;2024-01-06T10:59:12;8.10;99.90
22147;DHT22;13074;48.298;14.424;2024-01-06T11:01:41;8.10;99.90
22147;DHT22;13074;48.298;14.424;2024-01-06T11:04:09;8.10;99.90
22147;DHT22;13074;48.298;14.424;2024-01-06T11:06:36;8.20;99.90
22147;DHT22;13074;48.298;14.424;2024-01-06T11:09:09;8.10;99.90
22147;DHT22;13074;48.298;14.424;2024-01-06T11:11:39;8.10;99.90
22147;DHT22;13074;48.298;14.424;2024-01-06T11:14:21;8.10;99.90
22147;DHT22;13074;48.298;14.424;2024-01-06T11:16:50;8.10;99.90
22147;DHT22;13074;48.298;14.424;2024-01-06T11:19:51;8.10;99.90
22147;DHT22;13074;48.298;14.424;2024-01-06T11:22:25;8.10;99.90
22147;DHT22;13074;48.298;14.424;2024-01-06T11:24:54;8.00;99.90
22147;DHT22;13074;48.298;14.424;2024-01-06T11:27:24;8.00;99.90
22147;DHT22;13074;48.298;14.424;2024-01-06T11:29:54;8.00;99.90
22147;DHT22;13074;48.298;14.424;2024-01-06T11:32:30;8.10;99.90
22147;DHT22;13074;48.298;14.424;2024-01-06T11:35:09;8.10;99.90
22147;DHT22;13074;48.298;14.424;2024-01-06T11:37:50;8.10;99.90
22147;DHT22;13074;48.298;14.424;2024-01-06T11:40:23;8.00;99.90
22147;DHT22;13074;48.298;14.424;2024-01-06T11:42:57;8.00;99.90
22147;DHT22;13074;48.298;14.424;2024-01-06T11:45:25;8.00;99.90
22147;DHT22;13074;48.298;14.424;2024-01-06T11:47:57;8.00;99.90
22147;DHT22;13074;48.298;14.424;2024-01-06T11:50:25;8.00;99.90
22147;DHT22;13074;48.298;14.424;2024-01-06T11:52:52;8.00;99.90
22147;DHT22;13074;48.298;14.424;2024-01-06T11:55:20;8.00;99.90
22147;DHT22;13074;48.298;14.424;2024-01-06T11:57:48;8.00;99.90
22147;DHT22;13074;48.298;14.424;2024-01-06T12:00:16;7.90;99.90
22147;DHT22;13074;48.298;14.424;2024-01-06T12:02:44;7.90;99.90
22147;DHT22;13074;48.298;14.424;2024-01-06T12:05:17;7.90;99.90
22147;DHT22;13074;48.298;14.424;2024-01-06T12:07:53;7.90;99.90
22147;DHT22;13074;48.298;14.424;2024-01-06T12:10:22;7.90;99.90
22147;DHT22;13074;48.298;14.424;2024-01-06T12:12:57;7.90;99.90
22147;DHT22;13074;48.298;14.424;2024-01-06T12:15:25;7.90;99.90
22147;DHT22;13074;48.298;14.424;2024-01-06T12:17:53;7.90;99.90
22147;DHT22;13074;48.298;14.424;2024-01-06T12:20:23;7.90;99.90
22147;DHT22;13074;48.298;14.424;2024-01-06T12:22:51;7.80;99.90
22147;DHT22;13074;48.298;14.424;2024-01-06T12:25:21;7.90;99.90
22147;DHT22;13074;48.298;14.424;2024-01-06T12:27:49;7.90;99.90
22147;DHT22;13074;48.298;14.424;2024-01-06T12:30:19;7.90;99.90
22147;DHT22;13074;48.298;14.424;2024-01-06T12:32:47;7.90;99.90
22147;DHT22;13074;48.298;14.424;2024-01-06T12:35:15;8.00;99.90
22147;DHT22;13074;48.298;14.424;2024-01-06T12:37:44;8.00;99.90
22147;DHT22;13074;48.298;14.424;2024-01-06T12:40:13;8.00;99.90
22147;DHT22;13074;48.298;14.424;2024-01-06T12:42:42;8.00;99.90
22147;DHT22;13074;48.298;14.424;2024-01-06T12:45:10;8.10;99.90
22147;DHT22;13074;48.298;14.424;2024-01-06T12:47:38;8.10;99.90
22147;DHT22;13074;48.298;14.424;2024-01-06T12:50:07;8.10;99.90
22147;DHT22;13074;48.298;14.424;2024-01-06T12:52:35;8.10;99.90
22147;DHT22;13074;48.298;14.424;2024-01-06T12:55:06;8.10;99.90
22147;DHT22;13074;48.298;14.424;2024-01-06T12:57:33;8.10;99.90
22147;DHT22;13074;48.298;14.424;2024-01-06T13:00:01;8.10;99.90
22147;DHT22;13074;48.298;14.424;2024-01-06T13:02:29;8.10;99.90
22147;DHT22;13074;48.298;14.424;2024-01-06T13:04:56;8.10;99.90
22147;DHT22;13074;48.298;14.424;2024-01-06T13:07:24;8.10;99.90
22147;DHT22;13074;48.298;14.424;2024-01-06T13:09:52;8.10;99.90
22147;DHT22;13074;48.298;14.424;2024-01-06T13:12:21;8.10;99.90
22147;DHT22;13074;48.298;14.424;2024-01-06T13:14:49;8.00;99.90
22147;DHT22;13074;48.298;14.424;2024-01-06T13:17:17;8.00;99.90
22147;DHT22;13074;48.298;14.424;2024-01-06T13:19:44;8.00;99.90
22147;DHT22;13074;48.298;14.424;2024-01-06T13:22:11;8.10;99.90
22147;DHT22;13074;48.298;14.424;2024-01-06T13:24:40;8.10;99.90
22147;DHT22;13074;48.298;14.424;2024-01-06T13:27:08;8.10;99.90
22147;DHT22;13074;48.298;14.424;2024-01-06T13:29:37;8.10;99.90
22147;DHT22;13074;48.298;14.424;2024-01-06T13:32:05;8.20;99.90
22147;DHT22;13074;48.298;14.424;2024-01-06T13:34:33;8.10;99.90
22147;DHT22;13074;48.298;14.424;2024-01-06T13:37:00;8.20;99.90
22147;DHT22;13074;48.298;14.424;2024-01-06T13:39:28;8.10;99.90
22147;DHT22;13074;48.298;14.424;2024-01-06T13:41:56;8.10;99.90
22147;DHT22;13074;48.298;14.424;2024-01-06T13:44:23;8.10;99.90
22147;DHT22;13074;48.298;14.424;2024-01-06T13:46:52;8.10;99.90
22147;DHT22;13074;48.298;14.424;2024-01-06T13:49:20;8.10;99.90
22147;DHT22;13074;48.298;14.424;2024-01-06T13:51:48;8.00;99.90
22147;DHT22;13074;48.298;14.424;2024-01-06T13:54:15;7.90;99.90
22147;DHT22;13074;48.298;14.424;2024-01-06T13:56:43;8.00;99.90
22147;DHT22;13074;48.298;14.424;2024-01-06T13:59:10;7.90;99.90
22147;DHT22;13074;48.298;14.424;2024-01-06T14:01:38;7.90;99.90
22147;DHT22;13074;48.298;14.424;2024-01-06T14:04:07;7.90;99.90
22147;DHT22;13074;48.298;14.424;2024-01-06T14:06:35;7.90;99.90
22147;DHT22;13074;48.298;14.424;2024-01-06T14:09:02;7.80;99.90
22147;DHT22;13074;48.298;14.424;2024-01-06T14:11:31;7.80;99.90
22147;DHT22;13074;48.298;14.424;2024-01-06T14:13:59;7.80;99.90
22147;DHT22;13074;48.298;14.424;2024-01-06T14:16:27;7.80;99.90
22147;DHT22;13074;48.298;14.424;2024-01-06T14:18:54;7.80;99.90
22147;DHT22;13074;48.298;14.424;2024-01-06T14:21:23;7.70;99.90
22147;DHT22;13074;48.298;14.424;2024-01-06T14:23:51;7.80;99.90
22147;DHT22;13074;48.298;14.424;2024-01-06T14:26:18;7.80;99.90
22147;DHT22;13074;48.298;14.424;2024-01-06T14:28:46;7.80;99.90
22147;DHT22;13074;48.298;14.424;2024-01-06T14:31:14;7.80;99.90
22147;DHT22;13074;48.298;14.424;2024-01-06T14:33:41;7.80;99.90
22147;DHT22;13074;48.298;14.424;2024-01-06T14:36:09;7.70;99.90
22147;DHT22;13074;48.298;14.424;2024-01-06T14:38:38;7.80;99.90
22147;DHT22;13074;48.298;14.424;2024-01-06T14:41:05;7.70;99.90
22147;DHT22;13074;48.298;14.424;2024-01-06T14:43:33;7.70;99.90
22147;DHT22;13074;48.298;14.424;2024-01-06T14:46:00;7.70;99.90
22147;DHT22;13074;48.298;14.424;2024-01-06T14:48:28;7.70;99.90
22147;DHT22;13074;48.298;14.424;2024-01-06T14:50:55;7.70;99.90
22147;DHT22;13074;48.298;14.424;2024-01-06T14:53:23;7.60;99.90
22147;DHT22;13074;48.298;14.424;2024-01-06T14:55:52;7.60;99.90
22147;DHT22;13074;48.298;14.424;2024-01-06T14:58:19;7.60;99.90
22147;DHT22;13074;48.298;14.424;2024-01-06T15:00:47;7.60;99.90
22147;DHT22;13074;48.298;14.424;2024-01-06T15:03:16;7.60;99.90
22147;DHT22;13074;48.298;14.424;2024-01-06T15:05:43;7.30;99.90
22147;DHT22;13074;48.298;14.424;2024-01-06T15:08:11;7.60;99.90
22147;DHT22;13074;48.298;14.424;2024-01-06T15:10:38;7.60;99.90
22147;DHT22;13074;48.298;14.424;2024-01-06T15:13:07;7.60;99.90
22147;DHT22;13074;48.298;14.424;2024-01-06T15:15:36;7.50;99.90
22147;DHT22;13074;48.298;14.424;2024-01-06T15:18:05;7.50;99.90
22147;DHT22;13074;48.298;14.424;2024-01-06T15:20:32;7.40;99.90
22147;DHT22;13074;48.298;14.424;2024-01-06T15:23:00;7.40;99.90
22147;DHT22;13074;48.298;14.424;2024-01-06T15:25:27;7.50;99.90
22147;DHT22;13074;48.298;14.424;2024-01-06T15:27:55;7.40;99.90
22147;DHT22;13074;48.298;14.424;2024-01-06T15:30:24;7.40;99.90
22147;DHT22;13074;48.298;14.424;2024-01-06T15:32:51;7.40;99.90
22147;DHT22;13074;48.298;14.424;2024-01-06T15:35:19;7.30;99.90